createdAt,value
2022-10-24T00:00:24.716Z,17.67
2022-10-24T00:01:24.864Z,17.64
2022-10-24T00:02:25.048Z,17.60
2022-10-24T00:03:25.204Z,17.57
2022-10-24T00:04:25.372Z,17.56
2022-10-24T00:05:25.525Z,17.51
2022-10-24T00:06:25.705Z,17.49
2022-10-24T00:07:25.866Z,17.45
2022-10-24T00:08:26.044Z,17.46
2022-10-24T00:09:26.204Z,17.48
2022-10-24T00:10:26.372Z,17.45
2022-10-24T00:11:26.536Z,17.42
2022-10-24T00:12:26.696Z,17.42
2022-10-24T00:13:26.855Z,17.42
2022-10-24T00:14:27.045Z,17.42
2022-10-24T00:15:27.204Z,17.44
2022-10-24T00:16:27.384Z,17.44
2022-10-24T00:17:27.567Z,17.41
2022-10-24T00:18:27.737Z,17.42
2022-10-24T00:19:27.894Z,17.42
2022-10-24T00:20:28.054Z,17.41
2022-10-24T00:21:28.227Z,17.39
2022-10-24T00:22:28.393Z,17.39
2022-10-24T00:23:28.545Z,17.39
2022-10-24T00:24:28.706Z,17.39
2022-10-24T00:25:28.865Z,17.38
2022-10-24T00:26:29.044Z,17.36
2022-10-24T00:27:29.195Z,17.38
2022-10-24T00:28:29.421Z,17.38
2022-10-24T00:29:29.587Z,17.33
2022-10-24T00:30:29.745Z,17.30
2022-10-24T00:31:29.929Z,17.31
2022-10-24T00:32:30.086Z,17.33
2022-10-24T00:33:30.244Z,17.33
2022-10-24T00:34:30.405Z,17.33
2022-10-24T00:35:30.570Z,17.31
2022-10-24T00:36:30.745Z,17.27
2022-10-24T00:37:30.907Z,17.24
2022-10-24T00:38:31.071Z,17.26
2022-10-24T00:39:31.227Z,17.26
2022-10-24T00:40:31.405Z,17.26
2022-10-24T00:41:31.596Z,17.23
2022-10-24T00:42:31.725Z,17.24
2022-10-24T00:43:31.891Z,17.24
2022-10-24T00:44:32.045Z,17.24
2022-10-24T00:45:32.254Z,17.23
2022-10-24T00:46:32.405Z,17.22
2022-10-24T00:47:32.565Z,17.20
2022-10-24T00:48:32.734Z,17.20
2022-10-24T00:49:32.897Z,17.22
2022-10-24T00:50:33.064Z,17.19
2022-10-24T00:51:33.236Z,17.19
2022-10-24T00:52:33.398Z,17.16
2022-10-24T00:53:33.566Z,17.16
2022-10-24T00:54:33.733Z,17.14
2022-10-24T00:55:33.886Z,17.12
2022-10-24T00:56:34.065Z,17.11
2022-10-24T00:57:34.225Z,17.11
2022-10-24T00:58:34.395Z,17.12
2022-10-24T00:59:34.556Z,17.12
2022-10-24T01:00:34.778Z,17.09
2022-10-24T01:01:34.926Z,17.11
2022-10-24T01:02:35.058Z,17.12
2022-10-24T01:03:35.217Z,17.11
2022-10-24T01:04:35.426Z,17.11
2022-10-24T01:05:35.607Z,17.14
2022-10-24T01:06:35.786Z,17.14
2022-10-24T01:07:35.950Z,17.12
2022-10-24T01:08:36.108Z,17.12
2022-10-24T01:09:36.267Z,17.11
2022-10-24T01:11:36.645Z,17.11
2022-10-24T01:12:36.806Z,17.11
2022-10-24T01:13:36.968Z,17.09
2022-10-24T01:14:37.176Z,17.11
2022-10-24T01:15:37.349Z,17.11
2022-10-24T01:16:37.537Z,17.12
2022-10-24T01:17:37.657Z,17.14
2022-10-24T01:18:37.817Z,17.14
2022-10-24T01:19:37.990Z,17.15
2022-10-24T01:20:38.157Z,17.16
2022-10-24T01:21:38.326Z,17.19
2022-10-24T01:22:38.486Z,17.16
2022-10-24T01:23:38.650Z,17.15
2022-10-24T01:24:38.805Z,17.19
2022-10-24T01:25:38.965Z,17.15
2022-10-24T01:26:39.178Z,17.16
2022-10-24T01:27:39.334Z,17.16
2022-10-24T01:28:39.490Z,17.19
2022-10-24T01:29:39.654Z,17.20
2022-10-24T01:30:39.816Z,17.19
2022-10-24T01:31:39.986Z,17.20
2022-10-24T01:32:40.174Z,17.20
2022-10-24T01:33:40.317Z,17.19
2022-10-24T01:34:40.477Z,17.19
2022-10-24T01:35:40.653Z,17.20
2022-10-24T01:36:40.817Z,17.23
2022-10-24T01:37:41.062Z,17.23
2022-10-24T01:38:41.156Z,17.22
2022-10-24T01:39:41.333Z,17.22
2022-10-24T01:40:41.497Z,17.20
2022-10-24T01:41:41.686Z,17.23
2022-10-24T01:42:41.848Z,17.24
2022-10-24T01:43:42.032Z,17.24
2022-10-24T01:44:42.177Z,17.26
2022-10-24T01:45:42.339Z,17.27
2022-10-24T01:46:42.519Z,17.27
2022-10-24T01:47:43.017Z,17.26
2022-10-24T01:48:42.854Z,17.29
2022-10-24T01:49:43.007Z,17.26
2022-10-24T01:50:43.187Z,17.24
2022-10-24T01:51:43.358Z,17.24
2022-10-24T01:52:43.754Z,17.24
2022-10-24T01:53:43.678Z,17.23
2022-10-24T01:54:43.844Z,17.20
2022-10-24T01:55:43.997Z,17.19
2022-10-24T01:56:44.176Z,17.20
2022-10-24T01:57:44.337Z,17.19
2022-10-24T01:58:44.522Z,17.16
2022-10-24T01:59:44.686Z,17.15
2022-10-24T02:00:44.860Z,17.12
2022-10-24T02:01:45.036Z,17.12
2022-10-24T02:02:45.378Z,17.14
2022-10-24T02:03:45.347Z,17.11
2022-10-24T02:04:45.528Z,17.11
2022-10-24T02:05:45.687Z,17.09
2022-10-24T02:06:45.875Z,17.08
2022-10-24T02:07:46.037Z,17.06
2022-10-24T02:08:46.197Z,17.06
2022-10-24T02:09:46.356Z,17.05
2022-10-24T02:10:46.520Z,17.05
2022-10-24T02:11:46.699Z,17.04
2022-10-24T02:12:47.235Z,17.02
2022-10-24T02:13:47.047Z,17.01
2022-10-24T02:14:47.207Z,17.01
2022-10-24T02:15:47.388Z,17.01
2022-10-24T02:16:47.579Z,17.01
2022-10-24T02:17:47.849Z,16.97
2022-10-24T02:18:47.908Z,16.97
2022-10-24T02:19:48.067Z,16.94
2022-10-24T02:20:48.230Z,16.94
2022-10-24T02:21:48.410Z,16.93
2022-10-24T02:22:48.568Z,16.91
2022-10-24T02:23:48.727Z,16.90
2022-10-24T02:24:48.898Z,16.91
2022-10-24T02:25:49.064Z,16.90
2022-10-24T02:26:49.241Z,16.89
2022-10-24T02:27:49.427Z,16.89
2022-10-24T02:28:49.577Z,16.89
2022-10-24T02:29:49.737Z,16.89
2022-10-24T02:30:49.898Z,16.90
2022-10-24T02:31:50.067Z,16.86
2022-10-24T02:32:50.228Z,16.84
2022-10-24T02:33:50.388Z,16.86
2022-10-24T02:34:50.631Z,16.84
2022-10-24T02:35:50.738Z,16.83
2022-10-24T02:36:50.917Z,16.81
2022-10-24T02:37:51.076Z,16.84
2022-10-24T02:38:51.238Z,16.84
2022-10-24T02:39:51.397Z,16.83
2022-10-24T02:40:51.561Z,16.81
2022-10-24T02:41:51.736Z,16.81
2022-10-24T02:42:51.896Z,16.83
2022-10-24T02:43:52.048Z,16.81
2022-10-24T02:44:52.215Z,16.81
2022-10-24T02:45:52.367Z,16.78
2022-10-24T02:46:52.549Z,16.81
2022-10-24T02:47:52.708Z,16.78
2022-10-24T02:48:52.867Z,16.79
2022-10-24T02:49:53.061Z,16.81
2022-10-24T02:50:53.219Z,16.81
2022-10-24T02:51:53.408Z,16.79
2022-10-24T02:52:53.568Z,16.83
2022-10-24T02:53:53.729Z,16.79
2022-10-24T02:54:53.897Z,16.83
2022-10-24T02:55:54.067Z,16.81
2022-10-24T02:56:54.237Z,16.81
2022-10-24T02:57:54.432Z,16.81
2022-10-24T02:58:54.548Z,16.81
2022-10-24T02:59:54.745Z,16.78
2022-10-24T03:00:54.926Z,16.79
2022-10-24T03:01:55.186Z,16.79
2022-10-24T03:02:55.248Z,16.76
2022-10-24T03:03:55.416Z,16.79
2022-10-24T03:04:55.571Z,16.79
2022-10-24T03:05:55.732Z,16.78
2022-10-24T03:06:55.915Z,16.76
2022-10-24T03:07:56.080Z,16.75
2022-10-24T03:08:56.238Z,16.75
2022-10-24T03:09:56.400Z,16.76
2022-10-24T03:10:56.559Z,16.78
2022-10-24T03:11:56.740Z,16.79
2022-10-24T03:12:56.897Z,16.78
2022-10-24T03:13:57.059Z,16.81
2022-10-24T03:14:57.217Z,16.79
2022-10-24T03:15:57.407Z,16.79
2022-10-24T03:16:57.645Z,16.79
2022-10-24T03:17:57.753Z,16.79
2022-10-24T03:18:57.916Z,16.76
2022-10-24T03:19:58.088Z,16.76
2022-10-24T03:20:58.269Z,16.74
2022-10-24T03:21:58.430Z,16.74
2022-10-24T03:22:58.589Z,16.75
2022-10-24T03:23:58.791Z,16.75
2022-10-24T03:24:58.932Z,16.76
2022-10-24T03:25:59.138Z,16.75
2022-10-24T03:26:59.329Z,16.75
2022-10-24T03:27:59.468Z,16.75
2022-10-24T03:28:59.638Z,16.75
2022-10-24T03:29:59.807Z,16.76
2022-10-24T03:30:59.979Z,16.76
2022-10-24T03:32:00.149Z,16.79
2022-10-24T03:33:00.300Z,16.76
2022-10-24T03:34:00.470Z,16.76
2022-10-24T03:35:00.628Z,16.74
2022-10-24T03:36:00.812Z,16.74
2022-10-24T03:37:00.959Z,16.74
2022-10-24T03:38:01.118Z,16.74
2022-10-24T03:39:01.272Z,16.74
2022-10-24T03:40:01.439Z,16.72
2022-10-24T03:41:01.630Z,16.74
2022-10-24T03:42:01.763Z,16.72
2022-10-24T03:43:01.918Z,16.72
2022-10-24T03:44:02.089Z,16.71
2022-10-24T03:45:02.268Z,16.71
2022-10-24T03:46:02.491Z,16.69
2022-10-24T03:47:02.618Z,16.69
2022-10-24T03:48:02.778Z,16.71
2022-10-24T03:49:02.951Z,16.71
2022-10-24T03:50:03.119Z,16.71
2022-10-24T03:51:03.294Z,16.69
2022-10-24T03:52:03.441Z,16.69
2022-10-24T03:53:03.609Z,16.69
2022-10-24T03:54:03.769Z,16.71
2022-10-24T03:55:03.931Z,16.69
2022-10-24T03:56:04.119Z,16.71
2022-10-24T03:57:04.279Z,16.69
2022-10-24T03:58:04.473Z,16.69
2022-10-24T03:59:04.620Z,16.69
2022-10-24T04:00:04.848Z,16.68
2022-10-24T04:01:05.135Z,16.68
2022-10-24T04:02:05.152Z,16.71
2022-10-24T04:03:05.310Z,16.69
2022-10-24T04:04:05.479Z,16.74
2022-10-24T04:05:05.631Z,16.71
2022-10-24T04:06:05.852Z,16.71
2022-10-24T04:07:06.001Z,16.71
2022-10-24T04:08:06.202Z,16.71
2022-10-24T04:09:06.360Z,16.69
2022-10-24T04:10:06.562Z,16.69
2022-10-24T04:11:06.737Z,16.69
2022-10-24T04:12:06.889Z,16.69
2022-10-24T04:13:07.050Z,16.69
2022-10-24T04:14:07.213Z,16.68
2022-10-24T04:15:07.370Z,16.69
2022-10-24T04:16:07.540Z,16.68
2022-10-24T04:17:07.700Z,16.66
2022-10-24T04:18:07.859Z,16.69
2022-10-24T04:19:08.261Z,16.68
2022-10-24T04:20:08.190Z,16.66
2022-10-24T04:21:08.360Z,16.66
2022-10-24T04:22:08.541Z,16.66
2022-10-24T04:23:08.690Z,16.65
2022-10-24T04:24:08.880Z,16.61
2022-10-24T04:25:09.060Z,16.61
2022-10-24T04:26:09.220Z,16.60
2022-10-24T04:27:09.370Z,16.58
2022-10-24T04:28:09.570Z,16.56
2022-10-24T04:29:09.730Z,16.54
2022-10-24T04:30:14.070Z,16.56
2022-10-24T04:31:11.060Z,16.56
2022-10-24T04:32:10.251Z,16.54
2022-10-24T04:33:10.418Z,16.54
2022-10-24T04:34:10.570Z,16.54
2022-10-24T04:35:10.749Z,16.54
2022-10-24T04:36:10.909Z,16.56
2022-10-24T04:37:11.060Z,16.56
2022-10-24T04:38:11.241Z,16.56
2022-10-24T04:39:11.401Z,16.54
2022-10-24T04:40:11.580Z,16.53
2022-10-24T04:41:12.355Z,16.54
2022-10-24T04:42:11.941Z,16.54
2022-10-24T04:43:12.103Z,16.51
2022-10-24T04:44:12.261Z,16.50
2022-10-24T04:45:12.443Z,16.51
2022-10-24T04:46:12.607Z,16.51
2022-10-24T04:47:12.816Z,16.50
2022-10-24T04:48:12.950Z,16.53
2022-10-24T04:49:13.108Z,16.53
2022-10-24T04:50:13.311Z,16.53
2022-10-24T04:51:16.260Z,16.56
2022-10-24T04:52:14.661Z,16.56
2022-10-24T04:53:13.850Z,16.54
2022-10-24T04:54:14.011Z,16.53
2022-10-24T04:55:14.192Z,16.54
2022-10-24T04:56:14.352Z,16.57
2022-10-24T04:57:14.511Z,16.57
2022-10-24T04:58:14.670Z,16.56
2022-10-24T04:59:14.833Z,16.57
2022-10-24T05:00:15.045Z,16.57
2022-10-24T05:01:15.306Z,16.58
2022-10-24T05:02:15.419Z,16.56
2022-10-24T05:03:15.562Z,16.57
2022-10-24T05:04:15.761Z,16.56
2022-10-24T05:05:15.931Z,16.56
2022-10-24T05:06:16.096Z,16.56
2022-10-24T05:07:16.241Z,16.56
2022-10-24T05:08:16.443Z,16.54
2022-10-24T05:09:16.602Z,16.54
2022-10-24T05:10:16.784Z,16.54
2022-10-24T05:11:16.933Z,16.57
2022-10-24T05:12:17.132Z,16.57
2022-10-24T05:13:17.291Z,16.60
2022-10-24T05:14:17.452Z,16.57
2022-10-24T05:15:17.621Z,16.58
2022-10-24T05:16:17.864Z,16.58
2022-10-24T05:17:17.980Z,16.60
2022-10-24T05:18:18.140Z,16.58
2022-10-24T05:19:18.293Z,16.60
2022-10-24T05:20:18.474Z,16.60
2022-10-24T05:21:18.633Z,16.60
2022-10-24T05:22:18.792Z,16.61
2022-10-24T05:23:18.952Z,16.61
2022-10-24T05:24:19.111Z,16.61
2022-10-24T05:25:19.291Z,16.57
2022-10-24T05:26:19.451Z,16.58
2022-10-24T05:27:19.612Z,16.58
2022-10-24T05:28:19.779Z,16.57
2022-10-24T05:29:19.953Z,16.60
2022-10-24T05:30:20.152Z,16.60
2022-10-24T05:31:20.376Z,16.61
2022-10-24T05:32:20.516Z,16.61
2022-10-24T05:33:20.726Z,16.61
2022-10-24T05:34:20.893Z,16.68
2022-10-24T05:35:21.053Z,16.66
2022-10-24T05:36:21.205Z,16.66
2022-10-24T05:37:21.435Z,16.69
2022-10-24T05:38:21.543Z,16.69
2022-10-24T05:39:21.721Z,16.69
2022-10-24T05:40:21.922Z,16.69
2022-10-24T05:41:22.079Z,16.71
2022-10-24T05:42:22.264Z,16.71
2022-10-24T05:43:22.441Z,16.74
2022-10-24T05:44:22.632Z,16.72
2022-10-24T05:45:22.998Z,16.75
2022-10-24T05:46:23.001Z,16.75
2022-10-24T05:47:25.681Z,16.75
2022-10-24T05:48:24.334Z,16.76
2022-10-24T05:49:23.482Z,16.76
2022-10-24T05:50:23.673Z,16.79
2022-10-24T05:51:23.812Z,16.76
2022-10-24T05:52:24.004Z,16.78
2022-10-24T05:53:24.152Z,16.75
2022-10-24T05:54:27.604Z,16.79
2022-10-24T05:55:25.514Z,16.78
2022-10-24T05:56:24.663Z,16.81
2022-10-24T05:57:24.824Z,16.81
2022-10-24T05:58:24.992Z,16.81
2022-10-24T05:59:25.164Z,16.83
2022-10-24T06:00:25.362Z,16.86
2022-10-24T06:01:25.582Z,16.86
2022-10-24T06:02:25.767Z,16.87
2022-10-24T06:03:25.863Z,16.87
2022-10-24T06:04:26.081Z,16.86
2022-10-24T06:05:26.239Z,16.87
2022-10-24T06:06:26.383Z,16.87
2022-10-24T06:07:26.555Z,16.87
2022-10-24T06:08:26.731Z,16.89
2022-10-24T06:09:26.919Z,16.90
2022-10-24T06:10:27.123Z,16.87
2022-10-24T06:11:27.259Z,16.90
2022-10-24T06:12:27.432Z,16.93
2022-10-24T06:13:28.880Z,16.94
2022-10-24T06:14:27.792Z,16.94
2022-10-24T06:15:27.995Z,16.99
2022-10-24T06:16:28.176Z,17.01
2022-10-24T06:17:28.362Z,17.01
2022-10-24T06:18:28.556Z,17.02
2022-10-24T06:19:28.732Z,17.06
2022-10-24T06:20:28.922Z,17.05
2022-10-24T06:21:29.083Z,17.04
2022-10-24T06:22:29.243Z,17.05
2022-10-24T06:23:29.403Z,17.08
2022-10-24T06:24:29.570Z,17.11
2022-10-24T06:25:29.749Z,17.15
2022-10-24T06:26:29.911Z,17.16
2022-10-24T06:27:30.072Z,17.19
2022-10-24T06:28:30.233Z,17.22
2022-10-24T06:29:30.403Z,17.24
2022-10-24T06:30:30.602Z,17.24
2022-10-24T06:31:30.740Z,17.27
2022-10-24T06:32:30.924Z,17.29
2022-10-24T06:33:31.103Z,17.30
2022-10-24T06:34:31.293Z,17.34
2022-10-24T06:35:31.503Z,17.39
2022-10-24T06:36:31.854Z,17.41
2022-10-24T06:37:31.803Z,17.44
2022-10-24T06:38:31.984Z,17.46
2022-10-24T06:39:32.164Z,17.51
2022-10-24T06:40:32.367Z,17.54
2022-10-24T06:41:32.513Z,17.60
2022-10-24T06:42:32.717Z,17.64
2022-10-24T06:43:32.902Z,17.65
2022-10-24T06:44:33.094Z,17.71
2022-10-24T06:45:33.243Z,17.74
2022-10-24T06:46:33.394Z,17.79
2022-10-24T06:47:33.575Z,17.82
2022-10-24T06:48:33.754Z,17.85
2022-10-24T06:49:33.933Z,17.85
2022-10-24T06:50:34.133Z,17.90
2022-10-24T06:51:34.304Z,17.92
2022-10-24T06:52:34.486Z,17.94
2022-10-24T06:53:34.694Z,17.97
2022-10-24T06:54:34.843Z,18.00
2022-10-24T06:55:35.024Z,18.04
2022-10-24T06:56:35.234Z,18.07
2022-10-24T06:57:35.381Z,18.15
2022-10-24T06:58:35.624Z,18.16
2022-10-24T06:59:35.732Z,18.19
2022-10-24T07:00:35.925Z,18.25
2022-10-24T07:01:36.221Z,18.29
2022-10-24T07:02:36.283Z,18.34
2022-10-24T07:03:36.425Z,18.38
2022-10-24T07:04:36.605Z,18.44
2022-10-24T07:05:36.784Z,18.45
2022-10-24T07:06:36.986Z,18.50
2022-10-24T07:07:37.164Z,18.53
2022-10-24T07:08:37.338Z,18.53
2022-10-24T07:09:37.524Z,18.59
2022-10-24T07:10:37.741Z,18.62
2022-10-24T07:11:37.875Z,18.68
2022-10-24T07:12:38.057Z,18.71
2022-10-24T07:13:38.246Z,18.75
2022-10-24T07:14:38.427Z,18.80
2022-10-24T07:15:38.625Z,18.88
2022-10-24T07:16:38.765Z,18.92
2022-10-24T07:17:38.954Z,18.96
2022-10-24T07:18:39.145Z,19.02
2022-10-24T07:19:39.326Z,19.09
2022-10-24T07:21:39.672Z,19.16
2022-10-24T07:22:39.847Z,19.24
2022-10-24T07:23:40.047Z,19.29
2022-10-24T07:24:40.215Z,19.33
2022-10-24T07:25:40.436Z,19.37
2022-10-24T07:26:40.565Z,19.41
2022-10-24T07:27:40.765Z,19.47
2022-10-24T07:28:40.933Z,19.52
2022-10-24T07:29:41.065Z,19.56
2022-10-24T07:30:41.265Z,19.63
2022-10-24T07:31:41.434Z,19.69
2022-10-24T07:32:41.566Z,19.71
2022-10-24T07:33:41.747Z,19.77
2022-10-24T07:34:41.925Z,19.84
2022-10-24T07:35:42.126Z,19.89
2022-10-24T07:36:43.746Z,19.96
2022-10-24T07:37:42.646Z,20.04
2022-10-24T07:38:42.753Z,20.09
2022-10-24T07:39:42.837Z,20.13
2022-10-24T07:40:43.016Z,20.22
2022-10-24T07:41:43.206Z,20.28
2022-10-24T07:42:43.380Z,20.32
2022-10-24T07:43:43.572Z,20.37
2022-10-24T07:44:43.748Z,20.44
2022-10-24T07:45:47.731Z,20.52
2022-10-24T07:46:45.110Z,20.60
2022-10-24T07:47:44.603Z,20.67
2022-10-24T07:48:44.459Z,20.78
2022-10-24T07:49:44.656Z,20.85
2022-10-24T07:50:44.816Z,20.93
2022-10-24T07:51:44.994Z,21.03
2022-10-24T07:52:45.157Z,21.12
2022-10-24T07:53:45.345Z,21.18
2022-10-24T07:54:45.531Z,21.22
2022-10-24T07:55:45.723Z,21.29
2022-10-24T07:56:45.858Z,21.33
2022-10-24T07:57:46.441Z,21.40
2022-10-24T07:58:46.245Z,21.48
2022-10-24T07:59:46.395Z,21.54
2022-10-24T08:00:46.627Z,21.62
2022-10-24T08:01:46.916Z,21.70
2022-10-24T08:02:46.999Z,21.80
2022-10-24T08:03:47.129Z,21.88
2022-10-24T08:04:47.308Z,21.98
2022-10-24T08:05:47.518Z,22.11
2022-10-24T08:06:47.687Z,22.25
2022-10-24T08:07:56.075Z,22.35
2022-10-24T08:08:49.057Z,22.57
2022-10-24T08:09:48.249Z,22.76
2022-10-24T08:10:48.471Z,22.91
2022-10-24T08:11:48.587Z,23.05
2022-10-24T08:12:48.770Z,23.09
2022-10-24T08:13:48.956Z,23.17
2022-10-24T08:14:49.129Z,23.23
2022-10-24T08:15:49.341Z,23.36
2022-10-24T08:16:49.509Z,23.40
2022-10-24T08:17:49.678Z,23.54
2022-10-24T08:18:49.858Z,23.63
2022-10-24T08:19:50.042Z,23.76
2022-10-24T08:20:50.229Z,23.84
2022-10-24T08:21:50.392Z,23.91
2022-10-24T08:22:50.569Z,23.93
2022-10-24T08:23:50.799Z,23.99
2022-10-24T08:24:50.950Z,24.05
2022-10-24T08:25:51.217Z,24.11
2022-10-24T08:26:51.299Z,24.20
2022-10-24T08:27:51.480Z,24.35
2022-10-24T08:28:51.669Z,24.54
2022-10-24T08:29:51.851Z,24.66
2022-10-24T08:30:52.050Z,24.78
2022-10-24T08:31:52.213Z,24.88
2022-10-24T08:32:52.358Z,24.81
2022-10-24T08:33:52.541Z,24.73
2022-10-24T08:34:52.725Z,24.66
2022-10-24T08:35:52.912Z,24.76
2022-10-24T08:36:53.064Z,24.88
2022-10-24T08:37:53.252Z,24.98
2022-10-24T08:38:53.441Z,25.13
2022-10-24T08:39:53.600Z,25.26
2022-10-24T08:40:53.771Z,25.38
2022-10-24T08:41:55.559Z,25.46
2022-10-24T08:42:54.103Z,25.44
2022-10-24T08:43:54.304Z,25.40
2022-10-24T08:44:54.446Z,25.28
2022-10-24T08:45:54.652Z,25.25
2022-10-24T08:46:54.804Z,25.26
2022-10-24T08:47:54.984Z,25.31
2022-10-24T08:48:55.163Z,25.26
2022-10-24T08:49:55.355Z,25.18
2022-10-24T08:50:55.567Z,25.17
2022-10-24T08:51:55.697Z,25.18
2022-10-24T08:52:55.867Z,25.18
2022-10-24T08:53:56.054Z,25.26
2022-10-24T08:54:56.236Z,25.33
2022-10-24T08:55:56.436Z,25.33
2022-10-24T08:56:56.586Z,25.35
2022-10-24T08:57:56.765Z,25.40
2022-10-24T08:58:56.954Z,25.44
2022-10-24T08:59:57.164Z,25.48
2022-10-24T09:00:57.428Z,25.55
2022-10-24T09:02:00.626Z,25.62
2022-10-24T09:02:58.786Z,25.63
2022-10-24T09:03:58.104Z,25.62
2022-10-24T09:04:57.976Z,25.62
2022-10-24T09:05:58.215Z,25.63
2022-10-24T09:06:58.325Z,25.58
2022-10-24T09:07:58.517Z,25.59
2022-10-24T09:08:58.701Z,25.58
2022-10-24T09:09:58.885Z,25.55
2022-10-24T09:10:59.079Z,25.53
2022-10-24T09:11:59.233Z,25.48
2022-10-24T09:12:59.406Z,25.51
2022-10-24T09:13:59.596Z,25.54
2022-10-24T09:14:59.777Z,25.51
2022-10-24T09:15:59.976Z,25.44
2022-10-24T09:17:00.147Z,25.35
2022-10-24T09:18:00.348Z,25.26
2022-10-24T09:19:00.494Z,25.18
2022-10-24T09:20:00.677Z,25.14
2022-10-24T09:21:00.822Z,25.08
2022-10-24T09:22:00.977Z,25.01
2022-10-24T09:23:01.157Z,24.89
2022-10-24T09:24:01.347Z,24.81
2022-10-24T09:25:01.508Z,24.74
2022-10-24T09:26:01.658Z,24.68
2022-10-24T09:27:01.821Z,24.63
2022-10-24T09:28:02.020Z,24.60
2022-10-24T09:29:02.171Z,24.61
2022-10-24T09:30:02.381Z,24.68
2022-10-24T09:31:02.478Z,24.73
2022-10-24T09:32:02.674Z,24.80
2022-10-24T09:33:02.859Z,24.80
2022-10-24T09:34:03.039Z,24.78
2022-10-24T09:35:03.240Z,24.76
2022-10-24T09:36:03.412Z,24.70
2022-10-24T09:37:03.599Z,24.73
2022-10-24T09:38:03.798Z,24.70
2022-10-24T09:39:03.947Z,24.73
2022-10-24T09:40:04.157Z,24.73
2022-10-24T09:41:04.320Z,24.74
2022-10-24T09:42:04.499Z,24.74
2022-10-24T09:43:04.692Z,24.74
2022-10-24T09:44:04.890Z,24.73
2022-10-24T09:45:05.071Z,24.69
2022-10-24T09:46:05.221Z,24.70
2022-10-24T09:47:05.400Z,24.70
2022-10-24T09:48:05.590Z,24.68
2022-10-24T09:49:05.771Z,24.68
2022-10-24T09:50:05.969Z,24.68
2022-10-24T09:51:06.129Z,24.63
2022-10-24T09:52:06.289Z,24.58
2022-10-24T09:53:06.442Z,24.53
2022-10-24T09:54:06.637Z,24.50
2022-10-24T09:55:06.832Z,24.53
2022-10-24T09:56:06.982Z,24.54
2022-10-24T09:57:07.162Z,24.51
2022-10-24T09:58:07.305Z,24.53
2022-10-24T09:59:07.442Z,24.47
2022-10-24T10:00:07.641Z,24.45
2022-10-24T10:01:07.879Z,24.45
2022-10-24T10:02:08.033Z,24.47
2022-10-24T10:03:08.122Z,24.47
2022-10-24T10:04:10.640Z,24.50
2022-10-24T10:05:08.525Z,24.50
2022-10-24T10:06:08.685Z,24.50
2022-10-24T10:07:08.835Z,24.54
2022-10-24T10:08:09.020Z,24.58
2022-10-24T10:09:09.168Z,24.63
2022-10-24T10:10:09.364Z,24.68
2022-10-24T10:11:09.503Z,24.73
2022-10-24T10:12:09.696Z,24.77
2022-10-24T10:13:09.875Z,24.80
2022-10-24T10:14:10.054Z,24.80
2022-10-24T10:15:10.261Z,24.78
2022-10-24T10:16:15.137Z,24.78
2022-10-24T10:17:11.612Z,24.80
2022-10-24T10:18:10.773Z,24.81
2022-10-24T10:19:10.914Z,24.77
2022-10-24T10:20:12.317Z,24.69
2022-10-24T10:21:11.255Z,24.65
2022-10-24T10:22:11.424Z,24.65
2022-10-24T10:23:11.628Z,24.63
2022-10-24T10:24:11.816Z,24.65
2022-10-24T10:25:11.989Z,24.63
2022-10-24T10:26:12.147Z,24.63
2022-10-24T10:27:12.325Z,24.65
2022-10-24T10:28:12.516Z,24.68
2022-10-24T10:29:12.728Z,24.69
2022-10-24T10:30:12.879Z,24.69
2022-10-24T10:31:13.016Z,24.69
2022-10-24T10:32:13.206Z,24.66
2022-10-24T10:33:13.389Z,24.65
2022-10-24T10:34:16.074Z,24.61
2022-10-24T10:35:14.778Z,24.58
2022-10-24T10:36:13.936Z,24.55
2022-10-24T10:37:14.096Z,24.51
2022-10-24T10:38:14.287Z,24.50
2022-10-24T10:39:14.505Z,24.51
2022-10-24T10:40:14.669Z,24.50
2022-10-24T10:41:14.807Z,24.51
2022-10-24T10:42:14.986Z,24.47
2022-10-24T10:43:15.179Z,24.48
2022-10-24T10:44:15.345Z,24.47
2022-10-24T10:45:15.498Z,24.48
2022-10-24T10:46:15.684Z,24.45
2022-10-24T10:47:15.848Z,24.47
2022-10-24T10:48:16.066Z,24.43
2022-10-24T10:49:16.230Z,24.40
2022-10-24T10:50:16.378Z,24.35
2022-10-24T10:51:16.548Z,24.32
2022-10-24T10:52:16.739Z,24.30
2022-10-24T10:53:16.899Z,24.29
2022-10-24T10:54:17.104Z,24.30
2022-10-24T10:55:17.269Z,24.32
2022-10-24T10:56:17.460Z,24.30
2022-10-24T10:57:17.664Z,24.32
2022-10-24T10:58:17.819Z,24.33
2022-10-24T10:59:18.009Z,24.35
2022-10-24T11:00:18.191Z,24.36
2022-10-24T11:01:18.444Z,24.36
2022-10-24T11:02:18.664Z,24.40
2022-10-24T11:03:18.700Z,24.43
2022-10-24T11:04:18.911Z,24.48
2022-10-24T11:05:19.052Z,24.51
2022-10-24T11:06:19.249Z,24.50
2022-10-24T11:07:19.403Z,24.45
2022-10-24T11:08:19.590Z,24.47
2022-10-24T11:09:19.761Z,24.48
2022-10-24T11:10:19.900Z,24.48
2022-10-24T11:11:20.078Z,24.48
2022-10-24T11:12:20.264Z,24.47
2022-10-24T11:13:20.440Z,24.48
2022-10-24T11:14:20.643Z,24.50
2022-10-24T11:15:20.843Z,24.48
2022-10-24T11:16:20.952Z,24.47
2022-10-24T11:17:21.103Z,24.48
2022-10-24T11:18:21.281Z,24.48
2022-10-24T11:19:21.495Z,24.48
2022-10-24T11:20:21.663Z,24.50
2022-10-24T11:21:21.850Z,24.51
2022-10-24T11:22:22.031Z,24.53
2022-10-24T11:23:22.226Z,24.53
2022-10-24T11:24:22.432Z,24.50
2022-10-24T11:25:22.572Z,24.51
2022-10-24T11:26:22.722Z,24.48
2022-10-24T11:27:22.912Z,24.47
2022-10-24T11:28:23.094Z,24.45
2022-10-24T11:29:23.323Z,24.47
2022-10-24T11:30:23.490Z,24.50
2022-10-24T11:31:23.623Z,24.51
2022-10-24T11:32:23.809Z,24.55
2022-10-24T11:33:23.990Z,24.57
2022-10-24T11:34:24.185Z,24.57
2022-10-24T11:35:24.492Z,24.54
2022-10-24T11:36:24.504Z,24.57
2022-10-24T11:37:24.695Z,24.60
2022-10-24T11:38:24.922Z,24.63
2022-10-24T11:39:25.118Z,24.63
2022-10-24T11:40:25.263Z,24.57
2022-10-24T11:41:25.435Z,24.54
2022-10-24T11:42:25.624Z,24.54
2022-10-24T11:43:25.784Z,24.51
2022-10-24T11:44:25.976Z,24.51
2022-10-24T11:45:26.119Z,24.50
2022-10-24T11:46:26.295Z,24.54
2022-10-24T11:47:26.546Z,24.57
2022-10-24T11:48:26.656Z,24.55
2022-10-24T11:49:26.870Z,24.55
2022-10-24T11:50:27.103Z,24.57
2022-10-24T11:51:27.227Z,24.55
2022-10-24T11:52:27.358Z,24.55
2022-10-24T11:53:27.552Z,24.55
2022-10-24T11:54:27.747Z,24.58
2022-10-24T11:55:27.925Z,24.61
2022-10-24T11:56:28.118Z,24.57
2022-10-24T11:57:28.306Z,24.60
2022-10-24T11:58:28.497Z,24.66
2022-10-24T11:59:28.657Z,24.65
2022-10-24T12:00:28.828Z,24.61
2022-10-24T12:01:29.085Z,24.63
2022-10-24T12:02:29.218Z,24.60
2022-10-24T12:03:29.380Z,24.63
2022-10-24T12:04:29.517Z,24.63
2022-10-24T12:05:29.761Z,24.69
2022-10-24T12:06:29.876Z,24.69
2022-10-24T12:07:30.051Z,24.73
2022-10-24T12:08:30.267Z,24.77
2022-10-24T12:09:33.561Z,24.85
2022-10-24T12:10:30.587Z,24.89
2022-10-24T12:11:30.747Z,24.89
2022-10-24T12:12:30.928Z,24.92
2022-10-24T12:13:31.414Z,24.93
2022-10-24T12:14:31.271Z,24.96
2022-10-24T12:15:32.321Z,24.98
2022-10-24T12:16:31.703Z,25.01
2022-10-24T12:17:31.826Z,25.04
2022-10-24T12:18:32.019Z,25.03
2022-10-24T12:19:32.190Z,24.98
2022-10-24T12:20:32.379Z,24.96
2022-10-24T12:21:32.530Z,24.98
2022-10-24T12:22:32.712Z,24.95
2022-10-24T12:23:32.910Z,24.92
2022-10-24T12:24:33.066Z,24.91
2022-10-24T12:25:33.243Z,24.93
2022-10-24T12:26:33.420Z,24.93
2022-10-24T12:27:33.600Z,24.92
2022-10-24T12:28:33.772Z,24.95
2022-10-24T12:29:33.927Z,24.98
2022-10-24T12:30:34.101Z,24.96
2022-10-24T12:31:34.286Z,24.99
2022-10-24T12:32:34.474Z,24.96
2022-10-24T12:33:34.671Z,24.96
2022-10-24T12:34:34.821Z,24.96
2022-10-24T12:35:35.002Z,24.99
2022-10-24T12:36:35.162Z,24.98
2022-10-24T12:37:35.363Z,24.95
2022-10-24T12:38:35.542Z,24.95
2022-10-24T12:39:35.692Z,24.96
2022-10-24T12:40:35.872Z,24.96
2022-10-24T12:41:36.066Z,24.99
2022-10-24T12:42:36.213Z,25.03
2022-10-24T12:43:36.422Z,25.07
2022-10-24T12:44:36.553Z,25.13
2022-10-24T12:45:36.741Z,25.18
2022-10-24T12:46:36.924Z,25.21
2022-10-24T12:47:37.117Z,25.18
2022-10-24T12:48:37.346Z,25.23
2022-10-24T12:49:37.484Z,25.22
2022-10-24T12:50:37.664Z,25.23
2022-10-24T12:51:37.882Z,25.23
2022-10-24T12:52:38.015Z,25.25
2022-10-24T12:53:38.243Z,25.22
2022-10-24T12:54:38.385Z,25.21
2022-10-24T12:55:39.922Z,25.16
2022-10-24T12:56:39.786Z,25.08